createdAt,value
2017-09-07T00:00:42.453Z,13.00
2017-09-07T00:01:42.460Z,12.96
2017-09-07T00:02:42.461Z,12.95
2017-09-07T00:03:42.454Z,12.93
2017-09-07T00:04:42.461Z,12.88
2017-09-07T00:05:42.465Z,12.86
2017-09-07T00:06:42.464Z,12.84
2017-09-07T00:07:42.471Z,12.81
2017-09-07T00:08:42.478Z,12.79
2017-09-07T00:09:42.473Z,12.77
2017-09-07T00:10:42.478Z,12.76
2017-09-07T00:11:42.483Z,12.73
2017-09-07T00:12:42.485Z,12.77
2017-09-07T00:13:42.491Z,12.76
2017-09-07T00:14:42.496Z,12.78
2017-09-07T00:15:42.496Z,12.79
2017-09-07T00:16:42.502Z,12.85
2017-09-07T00:17:42.519Z,12.84
2017-09-07T00:18:48.663Z,12.87
2017-09-07T00:19:42.508Z,12.89
2017-09-07T00:20:42.511Z,12.91
2017-09-07T00:21:42.527Z,12.90
2017-09-07T00:22:42.520Z,12.89
2017-09-07T00:23:42.526Z,12.92
2017-09-07T00:24:42.526Z,12.95
2017-09-07T00:25:42.527Z,12.94
2017-09-07T00:26:42.535Z,12.94
2017-09-07T00:27:42.619Z,12.98
2017-09-07T00:28:42.540Z,13.01
2017-09-07T00:29:42.551Z,13.01
2017-09-07T00:30:42.570Z,13.05
2017-09-07T00:31:42.551Z,13.07
2017-09-07T00:32:42.563Z,13.08
2017-09-07T00:33:42.579Z,13.12
2017-09-07T00:34:42.561Z,13.10
2017-09-07T00:35:42.562Z,13.13
2017-09-07T00:36:42.565Z,13.12
2017-09-07T00:37:42.568Z,13.12
2017-09-07T00:38:42.569Z,13.09
2017-09-07T00:39:42.572Z,13.08
2017-09-07T00:40:42.757Z,13.06
2017-09-07T00:41:42.584Z,13.08
2017-09-07T00:42:42.585Z,13.07
2017-09-07T00:43:42.675Z,13.05
2017-09-07T00:44:42.592Z,13.04
2017-09-07T00:45:42.600Z,13.05
2017-09-07T00:46:42.604Z,13.06
2017-09-07T00:47:42.602Z,13.04
2017-09-07T00:48:42.614Z,13.07
2017-09-07T00:49:42.610Z,13.10
2017-09-07T00:50:42.610Z,13.12
2017-09-07T00:51:42.616Z,13.10
2017-09-07T00:52:42.621Z,13.15
2017-09-07T00:53:42.745Z,13.12
2017-09-07T00:54:42.669Z,13.12
2017-09-07T00:55:42.654Z,13.13
2017-09-07T00:56:42.670Z,13.16
2017-09-07T00:57:42.704Z,13.16
2017-09-07T00:58:42.640Z,13.11
2017-09-07T00:59:42.667Z,13.12
2017-09-07T01:03:13.191Z,13.14
2017-09-07T01:03:14.961Z,13.19
2017-09-07T01:03:15.972Z,13.17
2017-09-07T01:05:53.422Z,13.20
2017-09-07T01:05:55.144Z,13.22
2017-09-07T01:05:56.267Z,13.24
2017-09-07T01:08:32.190Z,13.23
2017-09-07T01:08:34.734Z,13.19
2017-09-07T01:08:42.677Z,13.20
2017-09-07T01:11:52.819Z,13.16
2017-09-07T01:11:54.595Z,13.16
2017-09-07T01:11:55.716Z,13.17
2017-09-07T01:15:05.172Z,13.14
2017-09-07T01:15:06.676Z,13.12
2017-09-07T01:15:07.801Z,13.16
2017-09-07T01:17:52.920Z,13.19
2017-09-07T01:17:55.287Z,13.18
2017-09-07T01:17:56.202Z,13.18
2017-09-07T01:20:24.039Z,13.16
2017-09-07T01:20:26.576Z,13.12
2017-09-07T01:20:42.713Z,13.09
2017-09-07T01:23:44.932Z,13.11
2017-09-07T01:23:46.672Z,13.10
2017-09-07T01:23:47.709Z,13.10
2017-09-07T01:27:07.150Z,13.08
2017-09-07T01:27:09.695Z,13.08
2017-09-07T01:27:10.611Z,13.02
2017-09-07T01:29:50.933Z,13.01
2017-09-07T01:29:52.823Z,13.02
2017-09-07T01:29:53.731Z,13.02
2017-09-07T01:32:28.182Z,13.00
2017-09-07T01:32:30.105Z,12.99
2017-09-07T01:32:42.754Z,12.95
2017-09-07T01:35:53.943Z,12.96
2017-09-07T01:35:56.492Z,12.92
2017-09-07T01:35:57.608Z,12.87
2017-09-07T01:38:33.099Z,12.86
2017-09-07T01:38:35.559Z,12.86
2017-09-07T01:38:42.771Z,12.87
2017-09-07T01:41:53.908Z,12.85
2017-09-07T01:41:55.620Z,12.84
2017-09-07T01:41:56.528Z,12.83
2017-09-07T01:45:08.165Z,12.84
2017-09-07T01:45:09.966Z,12.83
2017-09-07T01:45:11.178Z,12.83
2017-09-07T01:47:53.913Z,12.84
2017-09-07T01:47:55.719Z,12.87
2017-09-07T01:47:56.636Z,12.88
2017-09-07T01:50:26.498Z,12.84
2017-09-07T01:50:28.412Z,12.80
2017-09-07T01:50:42.821Z,12.82
2017-09-07T01:53:53.974Z,12.77
2017-09-07T01:53:56.337Z,12.73
2017-09-07T01:53:57.552Z,12.74
2017-09-07T01:56:27.182Z,12.72
2017-09-07T01:56:29.592Z,12.72
2017-09-07T01:56:42.829Z,12.68
2017-09-07T01:59:43.973Z,12.66
2017-09-07T01:59:45.746Z,12.67
2017-09-07T01:59:46.865Z,12.64
2017-09-07T02:00:42.844Z,12.61
2017-09-07T02:01:42.847Z,12.58
2017-09-07T02:02:42.850Z,12.57
2017-09-07T02:03:42.857Z,12.57
2017-09-07T02:04:43.260Z,12.57
2017-09-07T02:05:42.859Z,12.57
2017-09-07T02:06:42.888Z,12.54
2017-09-07T02:07:42.869Z,12.55
2017-09-07T02:08:42.879Z,12.55
2017-09-07T02:09:42.877Z,12.55
2017-09-07T02:10:42.878Z,12.58
2017-09-07T02:11:42.877Z,12.58
2017-09-07T02:12:42.884Z,12.55
2017-09-07T02:13:42.887Z,12.53
2017-09-07T02:14:42.894Z,12.48
2017-09-07T02:15:42.897Z,12.52
2017-09-07T02:16:42.896Z,12.54
2017-09-07T02:17:42.905Z,12.59
2017-09-07T02:18:42.918Z,12.61
2017-09-07T02:19:42.904Z,12.58
2017-09-07T02:20:42.907Z,12.60
2017-09-07T02:21:42.911Z,12.62
2017-09-07T02:22:42.918Z,12.60
2017-09-07T02:23:42.921Z,12.63
2017-09-07T02:24:42.924Z,12.66
2017-09-07T02:25:42.930Z,12.68
2017-09-07T02:26:42.930Z,12.72
2017-09-07T02:27:42.938Z,12.74
2017-09-07T02:28:42.938Z,12.76
2017-09-07T02:29:42.944Z,12.78
2017-09-07T02:30:42.948Z,12.80
2017-09-07T02:31:42.946Z,12.79
2017-09-07T02:32:42.951Z,12.82
2017-09-07T02:33:42.966Z,12.85
2017-09-07T02:34:42.972Z,12.85
2017-09-07T02:35:42.971Z,12.86
2017-09-07T02:36:42.963Z,12.86
2017-09-07T02:37:42.966Z,12.87
2017-09-07T02:38:42.969Z,12.90
2017-09-07T02:39:42.974Z,12.91
2017-09-07T02:40:42.975Z,12.89
2017-09-07T02:41:42.978Z,12.88
2017-09-07T02:42:42.982Z,12.88
2017-09-07T02:43:42.984Z,12.87
2017-09-07T02:44:42.990Z,12.89
2017-09-07T02:45:43.010Z,12.89
2017-09-07T02:46:42.995Z,12.95
2017-09-07T02:47:42.996Z,12.98
2017-09-07T02:48:43.006Z,12.96
2017-09-07T02:49:43.008Z,12.96
2017-09-07T02:50:43.006Z,12.97
2017-09-07T02:51:43.010Z,12.96
2017-09-07T02:52:43.016Z,12.96
2017-09-07T02:53:43.017Z,13.00
2017-09-07T02:54:43.024Z,12.99
2017-09-07T02:55:43.026Z,12.98
2017-09-07T02:56:43.029Z,13.00
2017-09-07T02:57:43.029Z,13.00
2017-09-07T02:58:43.033Z,13.01
2017-09-07T02:59:43.038Z,13.01
2017-09-07T03:00:43.042Z,13.03
2017-09-07T03:01:43.051Z,13.03
2017-09-07T03:02:43.051Z,13.01
2017-09-07T03:03:43.062Z,13.02
2017-09-07T03:04:43.061Z,13.04
2017-09-07T03:05:43.065Z,13.03
2017-09-07T03:06:43.071Z,13.02
2017-09-07T03:07:43.062Z,13.00
2017-09-07T03:08:43.069Z,12.97
2017-09-07T03:09:43.070Z,12.96
2017-09-07T03:10:43.072Z,12.96
2017-09-07T03:11:43.079Z,12.95
2017-09-07T03:12:43.083Z,12.91
2017-09-07T03:13:43.087Z,12.94
2017-09-07T03:14:43.089Z,12.97
2017-09-07T03:15:43.095Z,12.94
2017-09-07T03:16:43.112Z,12.93
2017-09-07T03:17:43.098Z,12.94
2017-09-07T03:18:43.107Z,12.95
2017-09-07T03:19:43.113Z,12.96
2017-09-07T03:20:43.110Z,12.94
2017-09-07T03:21:43.114Z,12.93
2017-09-07T03:22:43.123Z,12.93
2017-09-07T03:23:43.115Z,12.89
2017-09-07T03:24:43.131Z,12.85
2017-09-07T03:25:43.125Z,12.80
2017-09-07T03:26:43.131Z,12.79
2017-09-07T03:27:43.133Z,12.77
2017-09-07T03:28:43.138Z,12.78
2017-09-07T03:29:43.135Z,12.82
2017-09-07T03:30:47.289Z,12.82
2017-09-07T03:32:56.004Z,12.84
2017-09-07T03:32:57.766Z,12.82
2017-09-07T03:32:58.980Z,12.84
2017-09-07T03:33:43.150Z,12.85
2017-09-07T03:34:43.162Z,12.85
2017-09-07T03:35:43.170Z,12.83
2017-09-07T03:36:43.175Z,12.79
2017-09-07T03:37:43.165Z,12.79
2017-09-07T03:38:43.170Z,12.77
2017-09-07T03:39:43.173Z,12.76
2017-09-07T03:40:43.179Z,12.75
2017-09-07T03:41:43.182Z,12.72
2017-09-07T03:42:43.199Z,12.72
2017-09-07T03:43:43.195Z,12.74
2017-09-07T03:44:43.190Z,12.75
2017-09-07T03:45:43.203Z,12.74
2017-09-07T03:46:43.194Z,12.75
2017-09-07T03:47:43.201Z,12.71
2017-09-07T03:48:43.200Z,12.67
2017-09-07T03:49:43.209Z,12.66
2017-09-07T03:50:43.208Z,12.66
2017-09-07T03:51:43.211Z,12.66
2017-09-07T03:52:43.214Z,12.68
2017-09-07T03:53:43.221Z,12.63
2017-09-07T03:54:43.223Z,12.62
2017-09-07T03:55:43.230Z,12.56
2017-09-07T03:56:43.226Z,12.53
2017-09-07T03:57:43.230Z,12.49
2017-09-07T03:58:43.240Z,12.45
2017-09-07T03:59:43.237Z,12.42
2017-09-07T04:00:43.242Z,12.40
2017-09-07T04:01:43.249Z,12.42
2017-09-07T04:02:43.248Z,12.47
2017-09-07T04:03:43.255Z,12.44
2017-09-07T04:04:43.252Z,12.47
2017-09-07T04:05:43.260Z,12.52
2017-09-07T04:06:43.265Z,12.52
2017-09-07T04:07:43.263Z,12.54
2017-09-07T04:08:43.266Z,12.56
2017-09-07T04:09:43.267Z,12.61
2017-09-07T04:10:43.273Z,12.59
2017-09-07T04:11:43.283Z,12.59
2017-09-07T04:12:43.282Z,12.61
2017-09-07T04:13:43.285Z,12.67
2017-09-07T04:14:43.290Z,12.67
2017-09-07T04:15:43.295Z,12.70
2017-09-07T04:16:43.298Z,12.71
2017-09-07T04:17:43.304Z,12.69
2017-09-07T04:18:43.298Z,12.67
2017-09-07T04:19:43.303Z,12.65
2017-09-07T04:20:43.310Z,12.63
2017-09-07T04:21:43.309Z,12.61
2017-09-07T04:22:43.685Z,12.61
2017-09-07T04:23:43.315Z,12.63
2017-09-07T04:24:43.332Z,12.64
2017-09-07T04:25:43.322Z,12.67
2017-09-07T04:26:43.328Z,12.67
2017-09-07T04:27:43.330Z,12.68
2017-09-07T04:28:43.334Z,12.67
2017-09-07T04:29:43.337Z,12.64
2017-09-07T04:30:43.341Z,12.65
2017-09-07T04:31:43.344Z,12.59
2017-09-07T04:32:43.348Z,12.56
2017-09-07T04:33:43.351Z,12.54
2017-09-07T04:34:43.353Z,12.47
2017-09-07T04:35:43.357Z,12.42
2017-09-07T04:36:43.364Z,12.38
2017-09-07T04:37:43.372Z,12.32
2017-09-07T04:38:43.380Z,12.32
2017-09-07T04:39:43.371Z,12.30
2017-09-07T04:40:43.380Z,12.28
2017-09-07T04:41:43.378Z,12.27
2017-09-07T04:42:43.380Z,12.24
2017-09-07T04:43:43.388Z,12.20
2017-09-07T04:44:43.406Z,12.16
2017-09-07T04:45:43.391Z,12.18
2017-09-07T04:46:43.397Z,12.21
2017-09-07T04:47:43.400Z,12.24
2017-09-07T04:48:43.399Z,12.26
2017-09-07T04:49:43.411Z,12.36
2017-09-07T04:50:43.407Z,12.36
2017-09-07T04:51:43.414Z,12.36
2017-09-07T04:52:43.417Z,12.38
2017-09-07T04:53:43.417Z,12.35
2017-09-07T04:54:43.417Z,12.33
2017-09-07T04:55:43.421Z,12.31
2017-09-07T04:56:43.426Z,12.27
2017-09-07T04:57:43.432Z,12.30
2017-09-07T04:58:43.436Z,12.32
2017-09-07T04:59:43.437Z,12.32
2017-09-07T05:00:43.444Z,12.35
2017-09-07T05:01:43.445Z,12.38
2017-09-07T05:02:43.452Z,12.35
2017-09-07T05:03:43.453Z,12.38
2017-09-07T05:04:43.453Z,12.43
2017-09-07T05:05:43.460Z,12.44
2017-09-07T05:06:43.461Z,12.46
2017-09-07T05:07:43.471Z,12.46
2017-09-07T05:08:43.464Z,12.47
2017-09-07T05:09:43.469Z,12.42
2017-09-07T05:10:43.473Z,12.45
2017-09-07T05:11:43.483Z,12.47
2017-09-07T05:12:43.488Z,12.49
2017-09-07T05:13:43.484Z,12.51
2017-09-07T05:14:43.486Z,12.53
2017-09-07T05:15:43.500Z,12.55
2017-09-07T05:16:43.496Z,12.55
2017-09-07T05:17:43.495Z,12.56
2017-09-07T05:18:43.503Z,12.58
2017-09-07T05:19:43.517Z,12.59
2017-09-07T05:20:43.505Z,12.58
2017-09-07T05:21:43.513Z,12.59
2017-09-07T05:22:43.513Z,12.61
2017-09-07T05:23:43.519Z,12.62
2017-09-07T05:24:43.529Z,12.61
2017-09-07T05:25:43.528Z,12.62
2017-09-07T05:26:43.528Z,12.66
2017-09-07T05:27:43.528Z,12.68
2017-09-07T05:28:43.551Z,12.71
2017-09-07T05:29:43.535Z,12.74
2017-09-07T05:30:43.536Z,12.77
2017-09-07T05:31:43.543Z,12.79
2017-09-07T05:32:43.550Z,12.78
2017-09-07T05:33:43.549Z,12.82
2017-09-07T05:34:43.553Z,12.84
2017-09-07T05:35:43.556Z,12.87
2017-09-07T05:36:43.562Z,12.93
2017-09-07T05:37:43.565Z,12.97
2017-09-07T05:38:43.583Z,12.97
2017-09-07T05:39:43.586Z,12.99
2017-09-07T05:40:43.573Z,12.99
2017-09-07T05:41:43.594Z,13.05
2017-09-07T05:42:43.587Z,13.10
2017-09-07T05:43:43.588Z,13.14
2017-09-07T05:44:43.588Z,13.16
2017-09-07T05:45:43.602Z,13.14
2017-09-07T05:46:43.595Z,13.12
2017-09-07T05:47:43.624Z,13.15
2017-09-07T05:48:43.600Z,13.17
2017-09-07T05:49:43.601Z,13.17
2017-09-07T05:50:43.607Z,13.17
2017-09-07T05:51:43.610Z,13.17
2017-09-07T05:52:43.623Z,13.19
2017-09-07T05:53:43.619Z,13.23
2017-09-07T05:54:43.620Z,13.24
2017-09-07T05:55:43.623Z,13.25
2017-09-07T05:56:43.627Z,13.27
2017-09-07T05:57:43.630Z,13.30
2017-09-07T05:58:43.630Z,13.31
2017-09-07T05:59:43.730Z,13.32
2017-09-07T06:00:43.647Z,13.32
2017-09-07T06:01:43.644Z,13.32
2017-09-07T06:02:43.647Z,13.37
2017-09-07T06:03:43.651Z,13.40
2017-09-07T06:04:43.659Z,13.39
2017-09-07T06:05:43.666Z,13.40
2017-09-07T06:06:43.663Z,13.43
2017-09-07T06:07:43.680Z,13.47
2017-09-07T06:08:43.674Z,13.48
2017-09-07T06:09:43.684Z,13.49
2017-09-07T06:10:43.672Z,13.49
2017-09-07T06:11:43.675Z,13.48
2017-09-07T06:12:43.677Z,13.51
2017-09-07T06:13:43.681Z,13.52
2017-09-07T06:14:43.684Z,13.49
2017-09-07T06:15:43.697Z,13.46
2017-09-07T07:13:36.448Z,14.23
2017-09-07T07:13:43.563Z,14.27
2017-09-07T07:14:43.598Z,14.34
2017-09-07T07:15:43.890Z,14.37
2017-09-07T07:16:43.912Z,14.43
2017-09-07T07:17:43.897Z,14.48
2017-09-07T07:18:43.903Z,14.52
2017-09-07T07:19:43.947Z,14.52
2017-09-07T07:20:43.914Z,14.51
2017-09-07T07:21:43.920Z,14.51
2017-09-07T07:22:43.925Z,14.53
2017-09-07T07:23:43.932Z,14.55
2017-09-07T07:24:43.930Z,14.53
2017-09-07T07:25:43.934Z,14.53
2017-09-07T07:26:43.950Z,14.52
2017-09-07T07:27:43.937Z,14.54
2017-09-07T07:28:43.940Z,14.56
2017-09-07T07:29:43.940Z,14.54
2017-09-07T07:30:43.948Z,14.56
2017-09-07T07:31:43.955Z,14.60
2017-09-07T07:32:43.953Z,14.63
2017-09-07T07:33:43.954Z,14.68
2017-09-07T07:34:43.960Z,14.70
2017-09-07T07:35:43.964Z,14.74
2017-09-07T07:36:43.966Z,14.77
2017-09-07T07:37:43.973Z,14.81
2017-09-07T07:38:43.972Z,14.86
2017-09-07T07:39:43.979Z,14.96
2017-09-07T07:40:43.980Z,15.04
2017-09-07T07:41:44.000Z,15.15
2017-09-07T07:42:43.983Z,15.24
2017-09-07T07:43:43.987Z,15.36
2017-09-07T07:44:43.991Z,15.46
2017-09-07T07:45:44.006Z,15.68
2017-09-07T07:46:43.998Z,15.81
2017-09-07T07:47:44.005Z,15.87
2017-09-07T07:48:44.003Z,15.88
2017-09-07T07:49:44.017Z,15.84
2017-09-07T07:50:44.013Z,15.81
2017-09-07T07:51:44.016Z,15.74
2017-09-07T07:52:44.020Z,15.71
2017-09-07T07:53:44.025Z,15.66
2017-09-07T07:54:44.028Z,15.69
2017-09-07T07:55:44.028Z,15.69
2017-09-07T07:56:44.034Z,15.73
2017-09-07T07:57:44.038Z,15.75
2017-09-07T07:58:44.039Z,15.77
2017-09-07T07:59:44.041Z,15.78
2017-09-07T08:00:44.050Z,15.84
2017-09-07T08:01:44.053Z,15.81
2017-09-07T08:02:44.052Z,15.82
2017-09-07T08:03:44.055Z,15.87
2017-09-07T08:04:44.363Z,15.88
2017-09-07T08:05:44.068Z,15.88
2017-09-07T08:06:44.069Z,15.85
2017-09-07T08:07:44.073Z,15.81
2017-09-07T08:08:44.076Z,15.80
2017-09-07T08:09:44.077Z,15.81
2017-09-07T08:10:44.084Z,15.79
2017-09-07T08:11:44.088Z,15.78
2017-09-07T08:12:44.095Z,15.77
2017-09-07T08:13:44.094Z,15.78
2017-09-07T08:14:44.100Z,15.80
2017-09-07T08:15:44.189Z,15.80
2017-09-07T08:16:44.101Z,15.78
2017-09-07T08:17:44.101Z,15.79
2017-09-07T08:18:44.106Z,15.80
2017-09-07T08:19:44.109Z,15.81
2017-09-07T08:20:44.118Z,15.78
2017-09-07T08:21:44.117Z,15.75
2017-09-07T08:22:44.122Z,15.79
2017-09-07T08:23:44.130Z,15.82
2017-09-07T08:24:44.130Z,15.78
2017-09-07T08:25:44.129Z,15.74
2017-09-07T08:26:44.134Z,15.75
2017-09-07T08:27:44.141Z,15.77
2017-09-07T08:28:44.142Z,15.76
2017-09-07T08:29:44.146Z,15.77
2017-09-07T08:30:44.157Z,15.67
2017-09-07T08:31:44.151Z,15.62
2017-09-07T08:32:44.155Z,15.58
2017-09-07T08:33:44.157Z,15.58
2017-09-07T08:34:44.162Z,15.56
2017-09-07T08:35:44.163Z,15.56
2017-09-07T08:36:44.169Z,15.57
2017-09-07T08:37:44.171Z,15.56
2017-09-07T08:38:44.171Z,15.57
2017-09-07T08:39:44.176Z,15.58
2017-09-07T08:40:57.405Z,15.57
2017-09-07T08:41:44.188Z,15.60
2017-09-07T08:42:44.195Z,15.62
2017-09-07T08:43:44.214Z,15.60
2017-09-07T08:44:44.194Z,15.59
2017-09-07T08:45:44.197Z,15.63
2017-09-07T08:46:44.203Z,15.64
2017-09-07T08:47:44.200Z,15.67
2017-09-07T08:48:44.205Z,15.68
2017-09-07T08:49:44.502Z,15.71
2017-09-07T08:50:44.210Z,15.73
2017-09-07T08:51:44.217Z,15.78
2017-09-07T08:52:44.224Z,15.83
2017-09-07T08:53:44.223Z,15.89
2017-09-07T08:54:44.227Z,15.93
2017-09-07T08:55:44.226Z,16.00
2017-09-07T08:56:44.230Z,16.07
2017-09-07T08:57:44.236Z,16.15
2017-09-07T08:58:44.238Z,16.25
2017-09-07T08:59:44.241Z,16.36
2017-09-07T09:00:44.247Z,16.47
2017-09-07T09:01:44.253Z,16.59
2017-09-07T09:02:44.251Z,16.70
2017-09-07T09:03:44.253Z,16.75
2017-09-07T09:04:44.260Z,16.84
2017-09-07T09:05:44.266Z,16.87
2017-09-07T09:06:44.271Z,16.89
2017-09-07T09:07:44.280Z,16.89
2017-09-07T09:08:44.277Z,16.90
2017-09-07T09:09:44.276Z,16.91
2017-09-07T09:10:44.279Z,16.94
2017-09-07T09:11:44.283Z,16.92
2017-09-07T09:12:44.289Z,16.93
2017-09-07T09:13:44.296Z,16.90
2017-09-07T09:14:44.312Z,16.86
2017-09-07T09:15:44.296Z,16.84
2017-09-07T09:16:44.296Z,16.81
2017-09-07T09:17:44.300Z,16.77
2017-09-07T09:18:44.307Z,16.70
2017-09-07T09:19:44.587Z,16.64
2017-09-07T09:20:44.312Z,16.67
2017-09-07T09:21:44.317Z,16.49
2017-09-07T09:22:44.322Z,16.47
2017-09-07T09:23:44.320Z,16.49
2017-09-07T09:24:44.324Z,16.52
2017-09-07T09:25:44.330Z,16.53
2017-09-07T09:26:44.332Z,16.58
2017-09-07T09:27:44.333Z,16.60
2017-09-07T09:28:44.338Z,16.61
2017-09-07T09:29:44.343Z,16.62
2017-09-07T09:30:44.342Z,16.62
2017-09-07T09:31:44.349Z,16.63
2017-09-07T09:32:44.359Z,16.64
2017-09-07T09:33:44.363Z,16.78
2017-09-07T09:34:44.359Z,16.81
2017-09-07T09:35:44.368Z,16.88
2017-09-07T09:36:44.363Z,16.95
2017-09-07T09:37:44.369Z,17.00
2017-09-07T09:38:44.375Z,17.03
2017-09-07T09:39:44.379Z,16.98
2017-09-07T09:40:44.379Z,17.00
2017-09-07T09:41:44.380Z,17.00
2017-09-07T09:42:44.390Z,17.06
2017-09-07T09:43:44.390Z,17.13
2017-09-07T09:44:44.399Z,17.23
2017-09-07T09:45:44.395Z,17.29
2017-09-07T09:46:44.395Z,17.28
2017-09-07T09:47:44.397Z,17.33
2017-09-07T09:48:44.403Z,17.38
2017-09-07T09:49:44.406Z,17.33
2017-09-07T09:50:44.407Z,17.32
2017-09-07T09:51:44.413Z,17.38
2017-09-07T09:52:44.419Z,17.47
2017-09-07T09:53:44.419Z,17.58
2017-09-07T09:54:44.421Z,17.65
2017-09-07T09:55:44.427Z,17.64
2017-09-07T09:56:44.451Z,17.66
2017-09-07T09:57:44.585Z,17.64
2017-09-07T09:58:44.446Z,17.62
2017-09-07T09:59:44.450Z,17.57
2017-09-07T10:00:44.457Z,17.52
2017-09-07T10:01:44.458Z,17.41
2017-09-07T10:02:44.449Z,17.39
2017-09-07T10:03:44.450Z,17.36
2017-09-07T10:04:44.453Z,17.42
2017-09-07T10:05:44.471Z,17.50
2017-09-07T10:06:44.463Z,17.56
2017-09-07T10:07:44.471Z,17.53
2017-09-07T10:08:44.468Z,17.52
2017-09-07T10:09:44.495Z,17.63
2017-09-07T10:10:44.482Z,17.79
2017-09-07T10:11:44.479Z,17.87
2017-09-07T10:12:44.586Z,18.07
2017-09-07T10:13:44.665Z,18.44
2017-09-07T10:14:44.495Z,18.66
2017-09-07T10:15:44.516Z,18.60
2017-09-07T10:16:44.522Z,18.52
2017-09-07T10:17:44.596Z,18.36
2017-09-07T10:18:44.605Z,18.24
2017-09-07T10:19:44.506Z,18.12
2017-09-07T10:20:44.569Z,18.12
2017-09-07T10:21:44.513Z,18.12
2017-09-07T10:22:44.516Z,18.32
2017-09-07T10:23:44.521Z,18.44
2017-09-07T10:24:44.543Z,18.50
2017-09-07T10:25:44.528Z,18.40
2017-09-07T10:26:44.586Z,18.27
2017-09-07T10:27:44.543Z,18.25
2017-09-07T10:28:44.615Z,18.15
2017-09-07T10:29:44.545Z,18.10
2017-09-07T10:30:44.578Z,18.03
2017-09-07T10:31:44.550Z,18.01
2017-09-07T10:32:44.552Z,18.01
2017-09-07T10:33:44.554Z,18.01
2017-09-07T10:34:44.560Z,17.92
2017-09-07T10:35:44.561Z,17.79
2017-09-07T10:36:44.566Z,17.72
2017-09-07T10:37:44.572Z,17.67
2017-09-07T10:38:44.575Z,17.66
2017-09-07T10:39:44.590Z,17.68
2017-09-07T10:40:44.583Z,17.67
2017-09-07T10:41:44.595Z,17.73
2017-09-07T10:42:44.586Z,18.03
2017-09-07T10:43:44.593Z,18.43
2017-09-07T10:44:44.601Z,18.93
2017-09-07T10:45:44.746Z,19.11
2017-09-07T10:46:44.598Z,19.26
2017-09-07T10:47:44.606Z,19.42
2017-09-07T10:48:44.605Z,19.69
2017-09-07T10:49:44.616Z,19.85
2017-09-07T10:50:44.614Z,19.93
2017-09-07T10:51:44.630Z,20.23
2017-09-07T10:52:44.621Z,20.36
2017-09-07T10:53:44.628Z,20.55
2017-09-07T10:54:44.635Z,20.89
2017-09-07T10:55:44.631Z,20.98
2017-09-07T10:56:44.638Z,20.99
2017-09-07T10:57:44.637Z,20.78
2017-09-07T10:58:44.641Z,20.47
2017-09-07T10:59:44.642Z,20.15
2017-09-07T11:00:44.649Z,19.90
2017-09-07T11:01:44.649Z,19.67
2017-09-07T11:02:44.652Z,19.58
2017-09-07T11:03:44.663Z,19.65
2017-09-07T11:04:44.657Z,19.45
2017-09-07T11:05:44.669Z,19.03
2017-09-07T11:06:44.673Z,18.79
2017-09-07T11:07:44.671Z,18.53
2017-09-07T11:08:44.676Z,18.26
2017-09-07T11:09:44.685Z,18.12
2017-09-07T11:10:44.691Z,18.21
2017-09-07T11:11:44.681Z,18.28
2017-09-07T11:12:44.688Z,18.32
2017-09-07T11:13:44.697Z,18.31
2017-09-07T11:14:44.703Z,18.32
2017-09-07T11:15:44.720Z,18.26
2017-09-07T11:16:44.718Z,18.08
2017-09-07T11:17:44.706Z,17.90
2017-09-07T11:18:44.709Z,17.83
2017-09-07T11:19:44.716Z,17.69
2017-09-07T11:20:44.724Z,17.67
2017-09-07T11:21:44.719Z,17.65
2017-09-07T11:22:44.722Z,17.61
2017-09-07T11:23:44.727Z,17.62
2017-09-07T11:24:44.729Z,17.66
2017-09-07T11:25:44.732Z,18.01
2017-09-07T11:26:44.737Z,18.20
2017-09-07T11:27:44.736Z,18.30
2017-09-07T11:28:44.738Z,18.26
2017-09-07T11:29:44.744Z,18.24
2017-09-07T11:30:44.749Z,18.15
2017-09-07T11:31:44.751Z,18.11
2017-09-07T11:32:44.757Z,18.12
2017-09-07T11:33:44.757Z,18.13
2017-09-07T11:34:44.760Z,18.02
2017-09-07T11:35:44.765Z,18.03
2017-09-07T11:36:44.773Z,17.96
2017-09-07T11:37:44.770Z,17.90
2017-09-07T11:38:44.772Z,17.88
2017-09-07T11:39:44.778Z,17.91
2017-09-07T11:40:44.779Z,17.88
2017-09-07T11:41:44.784Z,17.84
2017-09-07T11:42:44.788Z,17.84
2017-09-07T11:43:44.793Z,17.83
2017-09-07T11:44:44.802Z,17.87
2017-09-07T11:45:44.897Z,17.95
2017-09-07T11:46:44.800Z,18.07
2017-09-07T11:47:44.830Z,18.18
2017-09-07T11:48:44.803Z,18.25
2017-09-07T11:49:44.812Z,18.24
2017-09-07T11:50:44.814Z,18.12
2017-09-07T11:51:44.816Z,17.95
2017-09-07T11:52:44.820Z,17.89
2017-09-07T11:53:44.827Z,17.88
2017-09-07T11:54:44.842Z,17.89
2017-09-07T11:55:44.829Z,17.94
2017-09-07T11:56:44.843Z,17.92
2017-09-07T11:57:44.839Z,17.93
2017-09-07T11:58:44.841Z,17.94
2017-09-07T11:59:44.843Z,17.93
2017-09-07T12:00:44.847Z,17.90
2017-09-07T12:01:44.849Z,17.88
2017-09-07T12:02:44.852Z,17.93
2017-09-07T12:03:44.864Z,18.08
2017-09-07T12:04:44.855Z,18.18
2017-09-07T12:05:44.859Z,18.41
2017-09-07T12:06:44.865Z,18.69
2017-09-07T12:07:44.872Z,18.97
2017-09-07T12:08:44.881Z,19.17
2017-09-07T12:09:44.874Z,19.36
2017-09-07T12:10:44.951Z,19.39
2017-09-07T12:11:44.879Z,19.49
2017-09-07T12:12:44.888Z,19.63
2017-09-07T12:13:44.893Z,19.82
2017-09-07T12:14:44.893Z,19.97
2017-09-07T12:15:44.913Z,20.04
2017-09-07T12:16:44.900Z,20.09
2017-09-07T12:17:44.909Z,20.21
2017-09-07T12:18:44.914Z,20.08
2017-09-07T12:19:44.920Z,19.96
2017-09-07T12:20:44.911Z,19.86
2017-09-07T12:21:44.915Z,19.85
2017-09-07T12:22:44.916Z,19.76
2017-09-07T12:23:44.920Z,19.54
2017-09-07T12:24:44.932Z,19.51
2017-09-07T12:25:44.926Z,19.52
2017-09-07T12:26:44.936Z,19.60
2017-09-07T12:27:44.936Z,19.72
2017-09-07T12:28:44.940Z,19.76
2017-09-07T12:29:44.942Z,19.82
2017-09-07T12:30:44.948Z,19.80
2017-09-07T12:31:44.948Z,19.81
2017-09-07T12:32:44.951Z,19.86
2017-09-07T12:33:44.953Z,19.90
2017-09-07T12:34:44.961Z,19.93
2017-09-07T12:35:44.960Z,19.98
2017-09-07T12:36:44.960Z,20.01
2017-09-07T12:37:44.965Z,19.99
2017-09-07T12:38:44.968Z,19.89
2017-09-07T12:39:44.980Z,19.52
2017-09-07T12:40:44.988Z,19.36
2017-09-07T12:41:44.980Z,19.23
2017-09-07T12:42:44.994Z,19.13
2017-09-07T12:43:44.998Z,19.06
2017-09-07T12:44:44.988Z,18.83
2017-09-07T12:45:44.994Z,18.71
2017-09-07T12:46:44.997Z,18.69
2017-09-07T12:47:45.019Z,18.70
2017-09-07T12:48:45.019Z,18.75
2017-09-07T12:49:45.007Z,18.77
2017-09-07T12:50:45.012Z,18.80
2017-09-07T12:51:45.017Z,18.80
2017-09-07T12:52:45.021Z,18.81
2017-09-07T12:53:45.024Z,18.81
2017-09-07T12:54:45.024Z,18.78
2017-09-07T12:55:45.030Z,18.82
2017-09-07T12:56:45.032Z,18.88
2017-09-07T12:57:45.038Z,18.92
2017-09-07T12:58:45.037Z,18.95
2017-09-07T12:59:45.053Z,18.99
2017-09-07T13:00:45.049Z,19.07
2017-09-07T13:01:45.047Z,19.14
2017-09-07T13:02:45.048Z,19.19
2017-09-07T13:03:45.051Z,19.21
2017-09-07T13:04:45.055Z,19.31
2017-09-07T13:05:45.061Z,19.41
2017-09-07T13:06:45.065Z,19.49
2017-09-07T13:07:45.066Z,19.54
2017-09-07T13:08:45.073Z,19.51
2017-09-07T13:09:45.075Z,19.55
2017-09-07T13:10:45.078Z,19.57
2017-09-07T13:11:45.083Z,19.62
2017-09-07T13:12:45.081Z,19.68
2017-09-07T13:13:45.088Z,19.73
2017-09-07T13:14:45.090Z,19.67
2017-09-07T13:15:45.115Z,19.68
2017-09-07T13:16:45.100Z,19.65
2017-09-07T13:17:45.103Z,19.60
2017-09-07T13:18:45.107Z,19.60
2017-09-07T13:19:45.104Z,19.60
2017-09-07T13:20:45.121Z,19.58
2017-09-07T13:21:45.113Z,19.61
2017-09-07T13:22:45.116Z,19.62
2017-09-07T13:23:45.121Z,19.68
2017-09-07T13:24:45.124Z,19.71
2017-09-07T13:25:45.134Z,19.67
2017-09-07T13:26:45.133Z,19.64
2017-09-07T13:27:45.135Z,19.58
2017-09-07T13:28:45.141Z,19.55
2017-09-07T13:29:45.139Z,19.51
2017-09-07T13:30:45.161Z,19.46
2017-09-07T13:31:45.143Z,19.40
2017-09-07T13:32:45.151Z,19.38
2017-09-07T13:33:45.159Z,19.41
2017-09-07T13:34:45.154Z,19.42
2017-09-07T13:35:45.157Z,19.45
2017-09-07T13:36:45.162Z,19.49
2017-09-07T13:37:45.167Z,19.51
2017-09-07T13:38:45.167Z,19.52
2017-09-07T13:39:45.170Z,19.56
2017-09-07T13:40:45.177Z,19.60
2017-09-07T13:41:45.177Z,19.68
2017-09-07T13:42:45.188Z,19.72
2017-09-07T13:43:45.193Z,19.74
2017-09-07T13:44:45.194Z,19.77
2017-09-07T13:45:46.855Z,19.79
2017-09-07T13:46:45.202Z,19.81
2017-09-07T13:47:45.203Z,19.84